createdAt,value
2019-05-21T00:01:10.512Z,100365.84
2019-05-21T00:03:40.640Z,100371.98
2019-05-21T00:06:10.601Z,100365.02
2019-05-21T00:08:40.487Z,100371.84
2019-05-21T00:11:10.430Z,100379.30
2019-05-21T00:13:40.366Z,100374.30
2019-05-21T00:16:10.589Z,100371.48
2019-05-21T00:18:40.465Z,100368.16
2019-05-21T00:21:10.428Z,100369.48
2019-05-21T00:23:40.303Z,100361.18
2019-05-21T00:26:10.258Z,100362.02
2019-05-21T00:28:39.445Z,100359.36
2019-05-21T00:31:45.551Z,100356.70
2019-05-21T00:34:51.388Z,100358.53
2019-05-21T00:37:56.996Z,100365.23
2019-05-21T00:41:03.111Z,100359.73
2019-05-21T00:43:54.081Z,100363.52
2019-05-21T00:46:24.348Z,100361.35
2019-05-21T00:48:54.231Z,100358.80
2019-05-21T00:51:24.105Z,100356.25
2019-05-21T00:53:54.051Z,100360.83
2019-05-21T00:56:24.307Z,100362.82
2019-05-21T00:58:54.168Z,100368.42
2019-05-21T01:01:23.961Z,100361.06
2019-05-21T01:03:53.892Z,100363.17
2019-05-21T01:06:23.826Z,100362.23
2019-05-21T01:08:53.979Z,100365.19
2019-05-21T01:11:24.514Z,100372.98
2019-05-21T01:13:54.481Z,100366.36
2019-05-21T01:16:24.506Z,100368.67
2019-05-21T01:18:54.430Z,100370.04
2019-05-21T01:21:25.385Z,100372.10
2019-05-21T01:23:55.259Z,100368.31
2019-05-21T01:26:25.398Z,100364.62
2019-05-21T01:28:55.522Z,100375.86
2019-05-21T01:31:25.840Z,100378.47
2019-05-21T01:33:55.696Z,100371.50
2019-05-21T01:36:25.642Z,100373.78
2019-05-21T01:38:54.605Z,100374.09
2019-05-21T01:41:23.463Z,100365.83
2019-05-21T01:43:52.305Z,100372.75
2019-05-21T01:46:21.176Z,100368.92
2019-05-21T01:48:49.931Z,100363.28
2019-05-21T01:51:18.757Z,100363.63
2019-05-21T01:53:47.524Z,100363.03
2019-05-21T01:56:16.394Z,100358.56
2019-05-21T01:58:45.280Z,100358.08
2019-05-21T02:01:14.127Z,100354.94
2019-05-21T02:03:43.036Z,100364.70
2019-05-21T02:06:11.801Z,100358.08
2019-05-21T02:08:40.574Z,100359.05
2019-05-21T02:11:10.039Z,100360.09
2019-05-21T02:13:39.238Z,100355.83
2019-05-21T02:16:08.089Z,100357.78
2019-05-21T02:18:36.920Z,100355.83
2019-05-21T02:21:05.781Z,100351.70
2019-05-21T02:23:34.626Z,100356.80
2019-05-21T02:26:03.469Z,100363.77
2019-05-21T02:28:32.302Z,100368.38
2019-05-21T02:31:01.150Z,100366.52
2019-05-21T02:33:29.914Z,100367.55
2019-05-21T02:35:58.820Z,100367.69
2019-05-21T02:38:27.978Z,100371.66
2019-05-21T02:40:56.947Z,100371.66
2019-05-21T02:43:25.806Z,100369.22
2019-05-21T02:45:54.646Z,100374.31
2019-05-21T02:48:23.488Z,100375.78
2019-05-21T02:50:52.337Z,100376.33
2019-05-21T02:53:21.192Z,100367.33
2019-05-21T02:55:50.058Z,100375.91
2019-05-21T02:58:18.957Z,100375.08
2019-05-21T03:01:06.940Z,100383.71
2019-05-21T03:03:35.923Z,100383.09
2019-05-21T03:06:14.022Z,100380.79
2019-05-21T03:08:35.307Z,100382.75
2019-05-21T03:11:04.149Z,100373.68
2019-05-21T03:13:32.949Z,100374.71
2019-05-21T03:16:01.789Z,100386.98
2019-05-21T03:18:30.648Z,100387.47
2019-05-21T03:20:59.485Z,100387.32
2019-05-21T03:23:28.346Z,100400.23
2019-05-21T03:25:57.111Z,100395.27
2019-05-21T03:28:26.040Z,100394.58
2019-05-21T03:30:55.062Z,100399.19
2019-05-21T03:33:23.903Z,100412.93
2019-05-21T03:35:52.754Z,100404.49
2019-05-21T03:38:21.793Z,100407.28
2019-05-21T03:40:50.557Z,100402.97
2019-05-21T03:43:19.415Z,100396.14
2019-05-21T03:45:48.274Z,100399.43
2019-05-21T03:48:17.514Z,100405.05
2019-05-21T03:50:46.371Z,100406.66
2019-05-21T03:53:15.201Z,100404.16
2019-05-21T03:55:43.975Z,100410.14
2019-05-21T03:58:12.826Z,100404.98
2019-05-21T04:00:41.661Z,100410.28
2019-05-21T04:03:10.510Z,100404.78
2019-05-21T04:05:39.646Z,100407.92
2019-05-21T04:08:09.401Z,100410.92
2019-05-21T04:10:39.595Z,100411.55
2019-05-21T04:13:09.864Z,100408.91
2019-05-21T04:16:00.086Z,100412.59
2019-05-21T04:18:35.811Z,100410.23
2019-05-21T04:21:05.744Z,100410.03
2019-05-21T04:24:38.342Z,100400.38
2019-05-21T04:27:08.308Z,100400.52
2019-05-21T04:29:39.589Z,100414.46
2019-05-21T04:32:09.539Z,100404.02
2019-05-21T04:34:39.495Z,100400.38
2019-05-21T04:37:11.538Z,100403.37
2019-05-21T04:39:41.382Z,100401.77
2019-05-21T04:42:11.557Z,100404.06
2019-05-21T04:44:41.507Z,100404.73
2019-05-21T04:47:11.370Z,100407.15
2019-05-21T04:49:41.590Z,100412.94
2019-05-21T04:52:11.536Z,100406.66
2019-05-21T04:54:41.428Z,100400.04
2019-05-21T04:57:11.640Z,100405.68
2019-05-21T04:59:41.779Z,100405.97
2019-05-21T05:02:12.713Z,100409.45
2019-05-21T05:04:42.713Z,100416.91
2019-05-21T05:07:26.889Z,100411.95
2019-05-21T05:09:44.459Z,100425.20
2019-05-21T05:12:14.406Z,100422.55
2019-05-21T05:14:44.361Z,100432.86
2019-05-21T05:17:14.162Z,100430.36
2019-05-21T05:19:44.136Z,100425.89
2019-05-21T05:22:14.086Z,100433.98
2019-05-21T05:24:45.582Z,100437.75
2019-05-21T05:27:15.671Z,100439.71
2019-05-21T05:29:45.575Z,100436.86
2019-05-21T05:32:15.526Z,100447.66
2019-05-21T05:34:45.836Z,100441.46
2019-05-21T05:37:15.788Z,100448.23
2019-05-21T05:39:45.681Z,100448.72
2019-05-21T05:42:15.633Z,100451.91
2019-05-21T05:44:46.782Z,100458.53
2019-05-21T05:47:17.063Z,100457.56
2019-05-21T05:49:49.986Z,100464.88
2019-05-21T05:52:19.837Z,100461.05
2019-05-21T05:54:49.789Z,100468.09
2019-05-21T05:57:19.729Z,100467.39
2019-05-21T05:59:49.586Z,100461.13
2019-05-21T06:02:19.467Z,100474.71
2019-05-21T06:04:49.575Z,100470.73
2019-05-21T06:07:19.526Z,100472.06
2019-05-21T06:09:49.317Z,100469.73
2019-05-21T06:12:19.272Z,100477.28
2019-05-21T06:14:49.174Z,100477.56
2019-05-21T06:17:19.357Z,100480.56
2019-05-21T06:19:49.382Z,100474.71
2019-05-21T06:22:19.282Z,100484.05
2019-05-21T06:24:49.197Z,100484.73
2019-05-21T06:27:19.148Z,100491.70
2019-05-21T06:29:49.088Z,100501.67
2019-05-21T06:32:19.065Z,100495.33
2019-05-21T06:34:49.626Z,100497.98
2019-05-21T06:37:19.933Z,100497.92
2019-05-21T06:39:49.934Z,100492.62
2019-05-21T06:42:19.917Z,100496.22
2019-05-21T06:44:49.868Z,100502.73
2019-05-21T06:47:19.751Z,100506.49
2019-05-21T06:49:49.613Z,100515.63
2019-05-21T06:52:19.484Z,100511.65
2019-05-21T06:54:49.471Z,100523.42
2019-05-21T06:57:19.684Z,100515.13
2019-05-21T06:59:49.643Z,100516.45
2019-05-21T07:02:19.885Z,100525.34
2019-05-21T07:04:49.877Z,100528.00
2019-05-21T07:07:19.868Z,100530.19
2019-05-21T07:09:51.155Z,100528.00
2019-05-21T07:12:21.006Z,100533.61
2019-05-21T07:14:51.081Z,100530.33
2019-05-21T07:17:21.015Z,100533.67
2019-05-21T07:19:51.316Z,100539.45
2019-05-21T07:22:21.273Z,100554.48
2019-05-21T07:24:51.233Z,100559.11
2019-05-21T07:27:21.193Z,100561.77
2019-05-21T07:29:51.143Z,100562.04
2019-05-21T07:32:21.131Z,100568.24
2019-05-21T07:34:51.107Z,100575.21
2019-05-21T07:37:21.084Z,100579.19
2019-05-21T07:39:51.028Z,100574.86
2019-05-21T07:42:20.988Z,100583.22
2019-05-21T07:44:50.880Z,100586.24
2019-05-21T07:47:20.867Z,100595.70
2019-05-21T07:49:50.856Z,100597.69
2019-05-21T07:52:20.783Z,100599.56
2019-05-21T07:54:51.069Z,100588.84
2019-05-21T07:57:21.153Z,100598.11
2019-05-21T07:59:51.025Z,100592.03
2019-05-21T08:02:21.002Z,100599.76
2019-05-21T08:04:51.211Z,100593.84
2019-05-21T08:07:21.186Z,100589.39
2019-05-21T08:09:51.322Z,100601.57
2019-05-21T08:12:37.396Z,100596.36
2019-05-21T08:14:52.966Z,100600.05
2019-05-21T08:17:22.980Z,100608.04
2019-05-21T08:19:53.256Z,100613.77
2019-05-21T08:22:27.003Z,100616.77
2019-05-21T08:24:56.901Z,100620.86
2019-05-21T08:27:26.864Z,100626.36
2019-05-21T08:29:56.749Z,100634.67
2019-05-21T08:32:27.028Z,100629.16
2019-05-21T08:34:57.007Z,100630.62
2019-05-21T08:37:26.878Z,100636.88
2019-05-21T08:39:56.783Z,100644.63
2019-05-21T08:42:26.733Z,100648.82
2019-05-21T08:44:56.760Z,100652.62
2019-05-21T08:47:26.802Z,100664.97
2019-05-21T08:49:56.639Z,100668.31
2019-05-21T08:52:26.729Z,100661.97
2019-05-21T08:54:56.838Z,100668.94
2019-05-21T08:57:26.710Z,100669.56
2019-05-21T08:59:56.694Z,100676.53
2019-05-21T09:02:26.765Z,100673.39
2019-05-21T09:04:57.765Z,100671.94
2019-05-21T09:07:28.043Z,100670.13
2019-05-21T09:09:58.055Z,100673.39
2019-05-21T09:12:28.050Z,100678.28
2019-05-21T09:14:58.378Z,100683.02
2019-05-21T09:17:28.711Z,100694.87
2019-05-21T09:19:58.697Z,100703.88
2019-05-21T09:22:29.061Z,100699.81
2019-05-21T09:24:59.168Z,100695.98
2019-05-21T09:27:29.104Z,100701.41
2019-05-21T09:29:59.099Z,100709.14
2019-05-21T09:32:29.740Z,100703.01
2019-05-21T09:35:00.194Z,100702.30
2019-05-21T09:37:30.165Z,100703.01
2019-05-21T09:40:01.272Z,100699.66
2019-05-21T09:42:31.519Z,100697.01
2019-05-21T09:45:01.505Z,100701.06
2019-05-21T09:47:32.628Z,100717.65
2019-05-21T09:50:03.573Z,100707.33
2019-05-21T09:52:33.847Z,100715.14
2019-05-21T09:55:03.967Z,100709.70
2019-05-21T09:57:42.474Z,100714.30
2019-05-21T10:00:26.268Z,100711.95
2019-05-21T10:02:56.355Z,100713.56
2019-05-21T10:05:26.353Z,100721.73
2019-05-21T10:07:56.267Z,100717.83
2019-05-21T10:10:26.245Z,100716.64
2019-05-21T10:12:56.125Z,100715.19
2019-05-21T10:15:26.481Z,100725.08
2019-05-21T10:17:56.532Z,100717.05
2019-05-21T10:20:26.522Z,100726.89
2019-05-21T10:22:56.538Z,100723.61
2019-05-21T10:25:26.431Z,100723.48
2019-05-21T10:27:56.430Z,100727.94
2019-05-21T10:30:27.264Z,100733.80
2019-05-21T10:32:57.350Z,100726.97
2019-05-21T10:35:27.358Z,100739.02
2019-05-21T10:37:57.321Z,100737.34
2019-05-21T10:40:28.381Z,100742.64
2019-05-21T10:42:58.680Z,100745.56
2019-05-21T10:45:28.692Z,100746.75
2019-05-21T10:47:59.213Z,100747.94
2019-05-21T10:50:29.328Z,100750.94
2019-05-21T10:52:59.467Z,100748.86
2019-05-21T10:55:29.440Z,100753.05
2019-05-21T10:57:59.524Z,100758.34
2019-05-21T11:00:30.285Z,100761.34
2019-05-21T11:03:10.825Z,100759.23
2019-05-21T11:05:44.051Z,100760.56
2019-05-21T11:08:23.860Z,100755.13
2019-05-21T11:10:45.796Z,100762.94
2019-05-21T11:13:15.841Z,100766.42
2019-05-21T11:15:45.855Z,100782.95
2019-05-21T11:18:16.258Z,100769.83
2019-05-21T11:20:46.198Z,100784.53
2019-05-21T11:23:16.160Z,100782.51
2019-05-21T11:25:46.170Z,100781.67
2019-05-21T11:28:16.519Z,100788.02
2019-05-21T11:30:46.523Z,100787.05
2019-05-21T11:33:16.832Z,100793.24
2019-05-21T11:35:46.840Z,100787.94
2019-05-21T11:38:16.793Z,100797.56
2019-05-21T11:40:51.064Z,100793.32
2019-05-21T11:43:20.461Z,100797.03
2019-05-21T11:45:50.524Z,100804.97
2019-05-21T11:48:20.931Z,100803.73
2019-05-21T11:50:51.012Z,100808.89
2019-05-21T11:53:21.081Z,100806.87
2019-05-21T11:55:51.029Z,100801.22
2019-05-21T11:58:21.109Z,100812.66
2019-05-21T12:00:51.044Z,100812.03
2019-05-21T12:03:21.140Z,100812.52
2019-05-21T12:05:51.499Z,100815.57
2019-05-21T12:08:21.571Z,100823.66
2019-05-21T12:10:51.633Z,100824.31
2019-05-21T12:13:21.631Z,100826.73
2019-05-21T12:15:51.679Z,100826.87
2019-05-21T12:18:21.949Z,100835.79
2019-05-21T12:20:52.065Z,100833.41
2019-05-21T12:23:22.035Z,100844.75
2019-05-21T12:25:52.367Z,100841.76
2019-05-21T12:28:22.402Z,100836.45
2019-05-21T12:31:12.164Z,100846.56
2019-05-21T12:33:42.708Z,100850.55
2019-05-21T12:36:12.640Z,100854.25
2019-05-21T12:38:42.550Z,100854.87
2019-05-21T12:41:14.093Z,100863.03
2019-05-21T12:43:44.289Z,100866.79
2019-05-21T12:46:14.337Z,100866.03
2019-05-21T12:48:46.449Z,100867.36
2019-05-21T12:51:16.608Z,100871.69
2019-05-21T12:53:46.957Z,100886.34
2019-05-21T12:56:17.337Z,100891.55
2019-05-21T12:58:47.681Z,100884.58
2019-05-21T13:01:19.819Z,100879.90
2019-05-21T13:03:55.384Z,100880.13
2019-05-21T13:06:24.584Z,100883.83
2019-05-21T13:08:54.589Z,100887.19
2019-05-21T13:11:24.710Z,100888.99
2019-05-21T13:13:54.691Z,100904.41
2019-05-21T13:16:24.684Z,100891.16
2019-05-21T13:18:54.786Z,100893.94
2019-05-21T13:21:24.809Z,100901.75
2019-05-21T13:23:54.842Z,100899.72
2019-05-21T13:26:24.925Z,100909.70
2019-05-21T13:28:54.968Z,100914.03
2019-05-21T13:31:25.420Z,100910.41
2019-05-21T13:33:55.299Z,100908.44
2019-05-21T13:36:25.260Z,100908.44
2019-05-21T13:38:55.365Z,100910.95
2019-05-21T13:41:26.359Z,100915.14
2019-05-21T13:43:58.019Z,100914.66
2019-05-21T13:46:28.154Z,100920.19
2019-05-21T13:48:58.252Z,100927.42
2019-05-21T13:51:28.302Z,100923.09
2019-05-21T13:53:58.760Z,100927.42
2019-05-21T13:56:28.757Z,100932.37
2019-05-21T13:58:58.662Z,100929.72
2019-05-21T14:01:39.902Z,100933.34
2019-05-21T14:04:01.845Z,100942.00
2019-05-21T14:06:33.725Z,100935.95
2019-05-21T14:09:05.294Z,100940.89
2019-05-21T14:11:35.803Z,100951.84
2019-05-21T14:14:05.857Z,100949.06
2019-05-21T14:16:36.340Z,100952.69
2019-05-21T14:19:06.414Z,100944.38
2019-05-21T14:21:36.332Z,100948.94
2019-05-21T14:24:06.381Z,100952.07
2019-05-21T14:26:36.655Z,100957.43
2019-05-21T14:29:06.629Z,100969.84
2019-05-21T14:31:36.942Z,100969.91
2019-05-21T14:34:07.079Z,100963.55
2019-05-21T14:36:37.085Z,100966.46
2019-05-21T14:39:12.311Z,100962.48
2019-05-21T14:41:42.464Z,100966.20
2019-05-21T14:44:17.829Z,100967.88
2019-05-21T14:46:49.480Z,100972.56
2019-05-21T14:49:19.358Z,100968.59
2019-05-21T14:51:49.592Z,100980.77
2019-05-21T14:54:26.690Z,100971.63
2019-05-21T14:56:51.131Z,100970.44
2019-05-21T14:59:21.090Z,100966.59
2019-05-21T15:01:51.615Z,100974.55
2019-05-21T15:04:22.118Z,100975.03
2019-05-21T15:06:52.234Z,100972.02
2019-05-21T15:09:22.545Z,100975.86
2019-05-21T15:11:52.412Z,100975.13
2019-05-21T15:14:22.297Z,100982.19
2019-05-21T15:16:52.557Z,100979.19
2019-05-21T15:19:22.563Z,100981.70
2019-05-21T15:21:54.975Z,100981.22
2019-05-21T15:24:24.926Z,100986.03
2019-05-21T15:26:54.885Z,100980.60
2019-05-21T15:29:24.847Z,100981.28
2019-05-21T15:31:54.710Z,100989.59
2019-05-21T15:34:24.688Z,100985.97
2019-05-21T15:36:54.507Z,100984.38
2019-05-21T15:39:24.449Z,100986.89
2019-05-21T15:41:54.321Z,100986.77
2019-05-21T15:44:24.277Z,100991.45
2019-05-21T15:46:54.229Z,100993.13
2019-05-21T15:49:35.659Z,100994.58
2019-05-21T15:51:56.805Z,100995.77
2019-05-21T15:54:26.747Z,100995.06
2019-05-21T15:56:56.661Z,100987.95
2019-05-21T15:59:26.595Z,100992.64
2019-05-21T16:01:56.557Z,100999.81
2019-05-21T16:04:26.747Z,101001.13
2019-05-21T16:06:56.917Z,101004.14
2019-05-21T16:09:27.196Z,101002.63
2019-05-21T16:11:57.148Z,101000.59
2019-05-21T16:14:27.022Z,101002.27
2019-05-21T16:16:57.186Z,100999.27
2019-05-21T16:19:27.146Z,101003.73
2019-05-21T16:21:57.122Z,101005.41
2019-05-21T16:24:27.339Z,101004.92
2019-05-21T16:26:57.278Z,101001.43
2019-05-21T16:29:27.141Z,101014.69
2019-05-21T16:31:57.096Z,101010.70
2019-05-21T16:34:26.992Z,101010.70
2019-05-21T16:36:57.049Z,101014.69
2019-05-21T16:39:27.595Z,101020.66
2019-05-21T16:41:57.542Z,101013.48
2019-05-21T16:44:27.494Z,101014.69
2019-05-21T16:46:57.396Z,101016.06
2019-05-21T16:49:27.688Z,101018.02
2019-05-21T16:51:58.341Z,101010.41
2019-05-21T16:54:28.276Z,101015.66
2019-05-21T16:56:58.274Z,101017.11
2019-05-21T16:59:28.329Z,101015.92
2019-05-21T17:01:58.619Z,101018.21
2019-05-21T17:04:29.319Z,101016.63
2019-05-21T17:06:59.263Z,101014.81
2019-05-21T17:09:29.378Z,101020.95
2019-05-21T17:12:00.460Z,101029.04
2019-05-21T17:14:30.564Z,101021.44
2019-05-21T17:17:00.404Z,101028.69
2019-05-21T17:19:30.413Z,101022.55
2019-05-21T17:22:01.003Z,101020.86
2019-05-21T17:24:31.982Z,101023.25
2019-05-21T17:27:01.865Z,101029.87
2019-05-21T17:29:32.610Z,101023.25
2019-05-21T17:32:06.180Z,101028.91
2019-05-21T17:34:34.278Z,101038.54
2019-05-21T17:37:04.535Z,101040.05
2019-05-21T17:39:34.529Z,101043.36
2019-05-21T17:42:15.135Z,101040.55
2019-05-21T17:44:36.917Z,101039.80
2019-05-21T17:47:06.905Z,101038.12
2019-05-21T17:49:36.988Z,101038.59
2019-05-21T17:52:07.349Z,101038.73
2019-05-21T17:54:54.044Z,101041.87
2019-05-21T17:57:10.363Z,101039.92
2019-05-21T17:59:40.466Z,101038.25
2019-05-21T18:02:13.276Z,101045.23
2019-05-21T18:04:47.050Z,101044.61
2019-05-21T18:07:17.318Z,101044.74
2019-05-21T18:09:47.436Z,101046.75
2019-05-21T18:12:31.212Z,101047.50
2019-05-21T18:14:50.546Z,101058.58
2019-05-21T18:17:21.057Z,101057.03
2019-05-21T18:19:53.399Z,101059.45
2019-05-21T18:22:24.757Z,101057.16
2019-05-21T18:24:56.027Z,101057.16
2019-05-21T18:27:26.840Z,101059.33
2019-05-21T18:29:58.435Z,101065.05
2019-05-21T18:32:29.307Z,101063.02
2019-05-21T18:35:02.316Z,101068.31
2019-05-21T18:37:32.460Z,101066.38
2019-05-21T18:40:02.423Z,101076.91
2019-05-21T18:42:32.891Z,101082.44
2019-05-21T18:45:03.096Z,101077.14
2019-05-21T18:47:33.251Z,101076.66
2019-05-21T18:50:04.742Z,101074.23
2019-05-21T18:52:35.450Z,101079.53
2019-05-21T18:55:05.819Z,101086.06
2019-05-21T18:57:36.162Z,101082.08
2019-05-21T19:00:06.437Z,101084.64
2019-05-21T19:02:39.582Z,101085.96
2019-05-21T19:05:09.732Z,101089.09
2019-05-21T19:07:41.131Z,101093.91
2019-05-21T19:10:12.102Z,101099.86
2019-05-21T19:12:43.220Z,101097.82
2019-05-21T19:15:13.693Z,101101.19
2019-05-21T19:17:44.143Z,101101.19
2019-05-21T19:20:14.709Z,101107.33
2019-05-21T19:22:44.658Z,101109.81
2019-05-21T19:25:15.470Z,101115.47
2019-05-21T19:27:45.366Z,101116.92
2019-05-21T19:30:16.337Z,101117.64
2019-05-21T19:32:46.485Z,101116.08
2019-05-21T19:35:16.872Z,101117.41
2019-05-21T19:37:46.900Z,101120.28
2019-05-21T19:40:17.137Z,101124.55
2019-05-21T19:42:54.827Z,101122.52
2019-05-21T19:45:19.183Z,101128.72
2019-05-21T19:47:49.135Z,101133.05
2019-05-21T19:50:19.007Z,101133.05
2019-05-21T19:52:48.962Z,101126.42
2019-05-21T19:55:19.072Z,101126.42
2019-05-21T19:57:49.102Z,101132.21
2019-05-21T20:00:20.861Z,101132.21
2019-05-21T20:02:51.245Z,101137.52
2019-05-21T20:05:21.955Z,101140.94
2019-05-21T20:07:52.297Z,101148.89
2019-05-21T20:10:22.451Z,101149.73
2019-05-21T20:12:52.889Z,101157.88
2019-05-21T20:15:22.778Z,101159.43
2019-05-21T20:18:06.642Z,101160.98
2019-05-21T20:20:27.997Z,101161.57
2019-05-21T20:22:58.596Z,101168.42
2019-05-21T20:25:30.927Z,101168.30
2019-05-21T20:28:00.958Z,101170.79
2019-05-21T20:30:31.759Z,101175.48
2019-05-21T20:33:02.043Z,101177.52
2019-05-21T20:35:32.095Z,101180.40
2019-05-21T20:38:03.461Z,101181.72
2019-05-21T20:40:33.721Z,101178.12
2019-05-21T20:43:04.737Z,101174.95
2019-05-21T20:45:35.981Z,101177.98
2019-05-21T20:48:07.062Z,101171.12
2019-05-21T20:50:38.269Z,101166.72
2019-05-21T20:53:10.201Z,101173.59
2019-05-21T20:55:40.561Z,101170.47
2019-05-21T20:58:11.434Z,101168.55
2019-05-21T21:00:46.560Z,101167.59
2019-05-21T21:03:18.259Z,101167.45
2019-05-21T21:05:48.215Z,101171.08
2019-05-21T21:08:19.539Z,101170.00
2019-05-21T21:10:49.711Z,101161.45
2019-05-21T21:13:19.585Z,101159.99
2019-05-21T21:15:49.491Z,101164.55
2019-05-21T21:18:20.027Z,101164.55
2019-05-21T21:20:50.249Z,101163.00
2019-05-21T21:23:22.586Z,101164.94
2019-05-21T21:25:52.643Z,101167.23
2019-05-21T21:28:22.874Z,101172.42
2019-05-21T21:30:53.747Z,101172.70
2019-05-21T21:33:24.028Z,101180.55
2019-05-21T21:35:54.157Z,101176.11
2019-05-21T21:38:26.505Z,101183.95
2019-05-21T21:40:57.148Z,101188.77
2019-05-21T21:43:27.301Z,101183.73
2019-05-21T21:45:57.180Z,101190.70
2019-05-21T21:48:27.420Z,101190.70
2019-05-21T21:50:57.809Z,101189.02
2019-05-21T21:53:27.741Z,101189.38
2019-05-21T21:55:57.861Z,101186.61
2019-05-21T21:58:27.655Z,101188.29
2019-05-21T22:01:54.355Z,101190.81
2019-05-21T22:04:30.459Z,101188.53
2019-05-21T22:07:00.497Z,101191.91
2019-05-21T22:09:31.783Z,101191.06
2019-05-21T22:12:03.402Z,101191.19
2019-05-21T22:14:49.076Z,101193.23
2019-05-21T22:17:09.228Z,101198.30
2019-05-21T22:19:40.573Z,101198.66
2019-05-21T22:22:11.657Z,101207.08
2019-05-21T22:24:41.828Z,101201.17
2019-05-21T22:27:11.865Z,101209.97
2019-05-21T22:29:41.711Z,101207.44
2019-05-21T22:32:11.667Z,101204.79
2019-05-21T22:34:41.597Z,101212.25
2019-05-21T22:37:14.985Z,101202.50
2019-05-21T22:39:47.576Z,101196.48
2019-05-21T22:42:17.639Z,101198.30
2019-05-21T22:44:47.726Z,101196.25
2019-05-21T22:47:17.676Z,101197.94
2019-05-21T22:49:47.522Z,101200.34
2019-05-21T22:52:17.529Z,101197.92
2019-05-21T22:54:47.703Z,101200.57
2019-05-21T22:57:17.679Z,101197.69
2019-05-21T22:59:47.758Z,101199.85
2019-05-21T23:02:22.809Z,101197.33
2019-05-21T23:04:53.173Z,101205.52
2019-05-21T23:07:23.165Z,101201.08
2019-05-21T23:09:54.601Z,101197.26
2019-05-21T23:12:24.667Z,101203.03
2019-05-21T23:14:54.611Z,101199.67
2019-05-21T23:17:26.578Z,101195.70
2019-05-21T23:20:08.521Z,101198.34
2019-05-21T23:22:40.605Z,101201.71
2019-05-21T23:25:12.273Z,101206.65
2019-05-21T23:27:42.604Z,101200.88
2019-05-21T23:30:14.348Z,101201.48
2019-05-21T23:32:45.427Z,101203.41
2019-05-21T23:35:17.113Z,101207.14
2019-05-21T23:37:47.926Z,101203.53
2019-05-21T23:40:18.248Z,101204.38
2019-05-21T23:42:48.305Z,101198.59
2019-05-21T23:45:19.237Z,101200.64
2019-05-21T23:47:50.282Z,101199.92
2019-05-21T23:50:20.633Z,101197.03
2019-05-21T23:52:51.060Z,101190.77
2019-05-21T23:55:20.944Z,101194.14
2019-05-21T23:57:51.945Z,101196.92
